createdAt,value
2022-11-24T01:28:46.212Z,21.90
2022-11-24T01:49:00.449Z,21.00
2022-11-24T01:59:09.079Z,19.10
2022-11-24T02:50:04.072Z,18.60
2022-11-24T03:00:13.665Z,18.60
2022-11-24T04:51:24.430Z,25.70
2022-11-24T05:11:37.628Z,23.00
2022-11-24T05:21:45.264Z,23.90
2022-11-24T05:31:53.052Z,31.00
2022-11-24T05:42:00.561Z,30.40
2022-11-24T05:52:07.977Z,34.00
2022-11-24T06:02:15.750Z,27.50
2022-11-24T06:12:23.077Z,22.40
2022-11-24T06:22:30.382Z,18.70
2022-11-24T06:32:40.204Z,16.30
2022-11-24T06:42:51.503Z,22.40
2022-11-24T06:52:57.681Z,29.00
2022-11-24T07:03:04.927Z,24.70
2022-11-24T07:13:12.616Z,27.30
2022-11-24T07:23:19.713Z,20.70
2022-11-24T07:33:27.077Z,19.50
2022-11-24T07:43:34.284Z,15.90
2022-11-24T07:53:42.419Z,15.10
2022-11-24T08:03:50.094Z,29.40
2022-11-24T08:13:57.497Z,23.90
2022-11-24T08:24:05.316Z,21.20
2022-11-24T08:34:12.620Z,15.40
2022-11-24T08:44:19.817Z,12.60
2022-11-24T08:54:28.175Z,14.60
2022-11-24T09:04:35.692Z,14.00
2022-11-24T09:14:43.193Z,19.10
2022-11-24T09:24:50.337Z,22.40
2022-11-24T09:34:57.759Z,23.90
2022-11-24T09:45:26.336Z,22.50
2022-11-24T09:55:41.025Z,16.20
2022-11-24T10:05:50.120Z,17.20
2022-11-24T10:15:57.198Z,27.90
2022-11-24T10:26:09.190Z,22.30
2022-11-24T10:36:21.526Z,22.50
2022-11-24T10:46:34.873Z,16.50
2022-11-24T10:56:46.976Z,18.50
2022-11-24T11:07:08.092Z,16.50
2022-11-24T11:17:28.266Z,18.70
2022-11-24T11:27:35.618Z,22.90
2022-11-24T11:37:44.744Z,26.10
2022-11-24T11:47:50.925Z,24.90
2022-11-24T11:57:56.667Z,38.30
2022-11-24T12:08:11.594Z,26.40
2022-11-24T12:18:55.719Z,24.30
2022-11-24T12:28:53.981Z,26.80
2022-11-24T12:38:59.251Z,29.20
2022-11-24T12:49:05.850Z,43.70
2022-11-24T12:59:18.095Z,59.90
2022-11-24T13:09:25.950Z,36.30
2022-11-24T13:19:36.756Z,19.20
2022-11-24T13:29:45.296Z,19.60
2022-11-24T13:39:52.856Z,17.70
2022-11-24T13:50:00.766Z,22.20
2022-11-24T14:00:20.650Z,31.10
2022-11-24T14:20:39.321Z,24.60
2022-11-24T14:30:46.584Z,22.50
2022-11-24T14:40:54.249Z,20.40
2022-11-24T14:51:06.757Z,18.70
2022-11-24T15:01:23.112Z,21.90
2022-11-24T15:11:32.692Z,48.10
2022-11-24T15:21:40.271Z,41.70
2022-11-24T15:31:52.441Z,50.50
2022-11-24T15:42:00.912Z,35.30
2022-11-24T15:52:08.289Z,40.80
2022-11-24T16:02:15.502Z,50.50
2022-11-24T16:12:24.989Z,44.70
2022-11-24T16:22:32.203Z,38.90
2022-11-24T16:32:39.506Z,42.20
2022-11-24T16:42:46.596Z,46.10
2022-11-24T16:52:53.810Z,55.20
2022-11-24T17:03:01.150Z,49.30
2022-11-24T17:13:08.762Z,48.90
2022-11-24T17:23:18.320Z,56.10
2022-11-24T17:33:26.159Z,46.30
2022-11-24T17:43:34.185Z,38.10
2022-11-24T17:53:42.550Z,64.20
2022-11-24T18:03:53.389Z,70.90
2022-11-24T18:14:03.561Z,41.70
2022-11-24T18:24:12.265Z,32.10
2022-11-24T18:34:19.904Z,30.20
2022-11-24T18:44:27.193Z,34.40
2022-11-24T18:54:34.877Z,53.20
2022-11-24T19:04:42.442Z,45.80
2022-11-24T19:14:49.902Z,49.10
2022-11-24T19:24:57.237Z,60.20
2022-11-24T19:35:05.006Z,58.60
2022-11-24T19:45:10.494Z,56.80
2022-11-24T19:55:17.676Z,51.10
2022-11-24T20:05:25.053Z,46.10
2022-11-24T20:15:32.584Z,79.10
2022-11-24T20:25:37.341Z,79.40
2022-11-24T20:35:44.754Z,87.90
2022-11-24T20:45:52.185Z,74.50
2022-11-24T20:56:05.816Z,76.30
2022-11-24T21:06:15.138Z,68.50
2022-11-24T21:16:26.835Z,70.60
2022-11-24T21:26:35.746Z,76.80
2022-11-24T21:36:45.302Z,93.80
2022-11-24T21:46:56.143Z,88.70
2022-11-24T21:57:03.605Z,83.00
2022-11-24T22:07:10.794Z,65.20
2022-11-24T22:17:18.181Z,67.70
2022-11-24T22:27:25.254Z,68.20
2022-11-24T22:37:31.277Z,60.20
2022-11-24T22:47:38.653Z,80.90
2022-11-24T22:57:48.303Z,79.20
2022-11-24T23:07:56.098Z,72.00
2022-11-24T23:18:03.928Z,67.20
2022-11-24T23:28:11.117Z,52.90
2022-11-24T23:38:18.305Z,51.70
2022-11-24T23:48:25.405Z,47.40
2022-11-24T23:58:33.779Z,63.10
